createdAt,value
2022-08-03T00:01:49.411Z,96.80
2022-08-03T00:04:16.160Z,97.00
2022-08-03T00:06:42.947Z,97.10
2022-08-03T00:09:09.785Z,97.20
2022-08-03T00:11:36.778Z,97.20
2022-08-03T00:14:03.552Z,97.20
2022-08-03T00:16:30.393Z,97.20
2022-08-03T00:18:57.106Z,97.20
2022-08-03T00:21:23.887Z,97.30
2022-08-03T00:23:51.146Z,97.30
2022-08-03T00:26:19.348Z,97.40
2022-08-03T00:28:46.091Z,97.50
2022-08-03T00:31:13.653Z,97.40
2022-08-03T00:33:58.855Z,97.40
2022-08-03T00:36:26.862Z,97.40
2022-08-03T00:38:53.583Z,97.50
2022-08-03T00:41:20.291Z,97.60
2022-08-03T00:43:47.844Z,97.50
2022-08-03T00:46:17.743Z,97.50
2022-08-03T00:48:47.539Z,97.50
2022-08-03T00:51:14.324Z,97.70
2022-08-03T00:53:41.120Z,97.60
2022-08-03T00:56:07.867Z,97.30
2022-08-03T00:58:34.627Z,97.50
2022-08-03T01:01:01.441Z,97.50
2022-08-03T01:03:28.336Z,97.50
2022-08-03T01:05:55.431Z,97.70
2022-08-03T01:08:22.188Z,97.70
2022-08-03T01:10:48.946Z,97.90
2022-08-03T01:14:01.047Z,97.70
2022-08-03T01:16:02.517Z,97.80
2022-08-03T01:18:29.360Z,97.80
2022-08-03T01:20:56.089Z,98.00
2022-08-03T01:23:28.873Z,97.90
2022-08-03T01:25:56.255Z,98.00
2022-08-03T01:28:23.591Z,98.10
2022-08-03T01:30:50.344Z,98.20
2022-08-03T01:33:17.151Z,98.10
2022-08-03T01:35:43.923Z,98.20
2022-08-03T01:38:10.682Z,98.20
2022-08-03T01:40:37.457Z,98.20
2022-08-03T01:43:04.199Z,98.10
2022-08-03T01:45:34.242Z,98.10
2022-08-03T01:48:01.278Z,98.20
2022-08-03T01:50:28.105Z,98.10
2022-08-03T01:52:54.911Z,98.20
2022-08-03T01:55:21.667Z,98.20
2022-08-03T01:58:06.295Z,98.10
2022-08-03T02:00:33.452Z,98.00
2022-08-03T02:03:00.184Z,98.00
2022-08-03T02:05:26.948Z,98.10
2022-08-03T02:07:53.816Z,98.10
2022-08-03T02:10:34.471Z,98.10
2022-08-03T02:13:02.683Z,98.10
2022-08-03T02:15:29.423Z,98.10
2022-08-03T02:17:56.144Z,98.00
2022-08-03T02:20:22.953Z,98.10
2022-08-03T02:22:49.730Z,98.00
2022-08-03T02:25:16.544Z,98.10
2022-08-03T02:27:44.127Z,98.00
2022-08-03T02:30:10.971Z,98.10
2022-08-03T02:32:37.728Z,98.10
2022-08-03T02:35:04.528Z,98.30
2022-08-03T02:37:31.299Z,98.40
2022-08-03T02:39:58.020Z,98.10
2022-08-03T02:42:24.908Z,98.20
2022-08-03T02:44:51.616Z,98.30
2022-08-03T02:47:20.966Z,98.40
2022-08-03T02:49:50.607Z,98.40
2022-08-03T02:52:18.795Z,98.40
2022-08-03T02:54:45.684Z,98.40
2022-08-03T02:57:12.501Z,98.50
2022-08-03T02:59:39.266Z,98.50
2022-08-03T03:02:06.196Z,98.60
2022-08-03T03:04:33.489Z,98.70
2022-08-03T03:07:01.914Z,98.70
2022-08-03T03:09:41.902Z,98.70
2022-08-03T03:12:10.228Z,98.70
2022-08-03T03:14:36.974Z,98.70
2022-08-03T03:17:03.708Z,98.70
2022-08-03T03:19:30.550Z,98.70
2022-08-03T03:21:57.294Z,98.80
2022-08-03T03:24:24.066Z,98.80
2022-08-03T03:26:50.823Z,98.70
2022-08-03T03:29:17.614Z,98.80
2022-08-03T03:31:44.366Z,98.80
2022-08-03T03:34:11.333Z,98.80
2022-08-03T03:36:38.095Z,98.90
2022-08-03T03:39:15.922Z,98.90
2022-08-03T03:41:43.175Z,98.80
2022-08-03T03:44:10.082Z,98.90
2022-08-03T03:46:36.862Z,98.90
2022-08-03T03:49:03.817Z,98.90
2022-08-03T03:51:30.612Z,99.00
2022-08-03T03:53:57.430Z,98.90
2022-08-03T03:56:24.249Z,99.00
2022-08-03T03:58:50.988Z,99.00
2022-08-03T04:01:18.129Z,99.00
2022-08-03T04:03:45.001Z,99.00
2022-08-03T04:06:30.720Z,99.10
2022-08-03T04:09:16.157Z,99.10
2022-08-03T04:11:42.906Z,99.10
2022-08-03T04:14:09.679Z,99.10
2022-08-03T04:16:38.799Z,99.10
2022-08-03T04:19:07.583Z,99.20
2022-08-03T04:21:34.322Z,99.10
2022-08-03T04:24:01.275Z,99.00
2022-08-03T04:26:27.999Z,99.10
2022-08-03T04:28:55.123Z,99.10
2022-08-03T04:31:21.870Z,99.10
2022-08-03T04:33:48.607Z,99.10
2022-08-03T04:36:15.399Z,99.40
2022-08-03T04:38:42.156Z,99.20
2022-08-03T04:41:08.897Z,99.20
2022-08-03T04:43:35.687Z,99.10
2022-08-03T04:46:02.564Z,99.20
2022-08-03T04:48:29.317Z,99.20
2022-08-03T04:50:56.036Z,99.30
2022-08-03T04:53:22.834Z,99.20
2022-08-03T04:55:50.043Z,99.20
2022-08-03T04:58:16.804Z,99.10
2022-08-03T05:00:45.731Z,99.10
2022-08-03T05:03:23.885Z,99.00
2022-08-03T05:05:51.981Z,99.10
2022-08-03T05:08:27.670Z,99.20
2022-08-03T05:10:55.218Z,98.80
2022-08-03T05:13:21.939Z,98.90
2022-08-03T05:15:49.400Z,98.80
2022-08-03T05:18:16.263Z,98.90
2022-08-03T05:20:42.979Z,98.90
2022-08-03T05:23:10.934Z,98.80
2022-08-03T05:25:37.802Z,98.70
2022-08-03T05:28:06.142Z,98.80
2022-08-03T05:30:34.094Z,98.80
2022-08-03T05:33:01.370Z,98.90
2022-08-03T05:36:01.089Z,98.80
2022-08-03T05:38:23.839Z,98.70
2022-08-03T05:40:57.290Z,98.50
2022-08-03T05:43:24.814Z,98.60
2022-08-03T05:46:11.540Z,98.70
2022-08-03T05:48:38.514Z,98.50
2022-08-03T05:51:07.602Z,98.60
2022-08-03T05:53:34.431Z,98.80
2022-08-03T05:56:13.273Z,98.30
2022-08-03T05:58:42.306Z,98.40
2022-08-03T06:01:09.163Z,98.60
2022-08-03T06:03:35.925Z,98.30
2022-08-03T06:06:02.751Z,98.30
2022-08-03T06:08:29.611Z,98.30
2022-08-03T06:10:56.376Z,98.20
2022-08-03T06:13:23.169Z,98.40
2022-08-03T06:15:49.975Z,98.20
2022-08-03T06:18:16.796Z,98.10
2022-08-03T06:20:43.679Z,98.00
2022-08-03T06:23:15.999Z,98.30
2022-08-03T06:25:44.160Z,98.10
2022-08-03T06:28:18.983Z,98.00
2022-08-03T06:30:50.694Z,97.90
2022-08-03T06:33:17.410Z,98.00
2022-08-03T06:35:44.704Z,97.90
2022-08-03T06:38:13.296Z,98.00
2022-08-03T06:40:40.194Z,97.70
2022-08-03T06:43:10.729Z,97.60
2022-08-03T06:45:39.371Z,97.40
2022-08-03T06:48:06.162Z,97.60
2022-08-03T06:50:33.014Z,97.10
2022-08-03T06:52:59.834Z,97.20
2022-08-03T06:55:26.632Z,97.40
2022-08-03T06:57:53.445Z,97.20
2022-08-03T07:00:20.260Z,97.20
2022-08-03T07:02:47.003Z,97.20
2022-08-03T07:05:13.952Z,97.20
2022-08-03T07:07:40.864Z,97.10
2022-08-03T07:10:07.661Z,97.80
2022-08-03T07:12:34.599Z,97.10
2022-08-03T07:15:02.966Z,97.00
2022-08-03T07:17:30.218Z,97.20
2022-08-03T07:19:57.044Z,97.40
2022-08-03T07:22:23.850Z,97.30
2022-08-03T07:24:50.629Z,97.00
2022-08-03T07:27:17.375Z,97.10
2022-08-03T07:29:44.155Z,96.60
2022-08-03T07:32:10.930Z,96.30
2022-08-03T07:34:37.690Z,96.50
2022-08-03T07:37:04.494Z,96.30
2022-08-03T07:39:31.234Z,96.30
2022-08-03T07:41:57.984Z,95.70
2022-08-03T07:44:24.835Z,96.10
2022-08-03T07:46:51.600Z,96.80
2022-08-03T07:49:18.818Z,96.00
2022-08-03T07:51:45.741Z,97.20
2022-08-03T07:54:12.485Z,94.90
2022-08-03T07:56:39.504Z,95.20
2022-08-03T07:59:06.496Z,95.00
2022-08-03T08:01:36.659Z,95.20
2022-08-03T08:04:03.492Z,94.60
2022-08-03T08:06:32.803Z,94.70
2022-08-03T08:09:02.320Z,94.50
2022-08-03T08:11:29.064Z,94.10
2022-08-03T08:13:55.870Z,93.90
2022-08-03T08:16:22.629Z,93.50
2022-08-03T08:18:49.376Z,93.30
2022-08-03T08:21:16.208Z,93.20
2022-08-03T08:23:46.244Z,93.50
2022-08-03T08:26:22.629Z,93.50
2022-08-03T08:28:49.409Z,93.40
2022-08-03T08:31:16.251Z,92.20
2022-08-03T08:34:03.095Z,92.50
2022-08-03T08:36:29.889Z,91.90
2022-08-03T08:38:56.765Z,91.90
2022-08-03T08:41:23.520Z,92.40
2022-08-03T08:44:00.203Z,92.10
2022-08-03T08:46:27.213Z,91.30
2022-08-03T08:48:54.075Z,91.60
2022-08-03T08:51:21.115Z,90.90
2022-08-03T08:53:47.878Z,91.50
2022-08-03T08:56:17.683Z,88.70
2022-08-03T08:58:44.645Z,90.00
2022-08-03T09:01:11.445Z,88.80
2022-08-03T09:03:38.253Z,88.90
2022-08-03T09:06:05.146Z,87.50
2022-08-03T09:08:31.873Z,86.50
2022-08-03T09:10:58.717Z,88.60
2022-08-03T09:13:25.722Z,86.60
2022-08-03T09:16:01.133Z,85.60
2022-08-03T09:18:30.525Z,87.70
2022-08-03T09:21:06.796Z,87.00
2022-08-03T09:24:01.684Z,86.90
2022-08-03T09:26:29.863Z,85.20
2022-08-03T09:29:04.683Z,84.70
2022-08-03T09:31:33.857Z,85.60
2022-08-03T09:34:01.519Z,86.20
2022-08-03T09:36:28.360Z,86.60
2022-08-03T09:38:55.206Z,85.50
2022-08-03T09:41:22.271Z,84.10
2022-08-03T09:43:51.685Z,84.10
2022-08-03T09:46:18.443Z,84.50
2022-08-03T09:48:45.395Z,83.80
2022-08-03T09:51:14.496Z,85.10
2022-08-03T09:54:01.897Z,82.70
2022-08-03T09:56:34.346Z,83.50
2022-08-03T09:59:03.376Z,82.90
2022-08-03T10:01:30.212Z,82.80
2022-08-03T10:04:04.303Z,80.80
2022-08-03T10:06:31.761Z,79.80
2022-08-03T10:08:58.519Z,81.50
2022-08-03T10:11:25.279Z,82.00
2022-08-03T10:13:52.470Z,80.70
2022-08-03T10:16:28.355Z,80.30
2022-08-03T10:18:57.289Z,79.40
2022-08-03T10:21:24.121Z,79.60
2022-08-03T10:23:50.847Z,80.60
2022-08-03T10:26:17.658Z,81.80
2022-08-03T10:28:45.478Z,80.50
2022-08-03T10:31:12.536Z,81.20
2022-08-03T10:33:49.251Z,80.70
2022-08-03T10:36:18.952Z,80.00
2022-08-03T10:38:52.993Z,78.60
2022-08-03T10:41:20.188Z,78.40
2022-08-03T10:43:49.033Z,77.70
2022-08-03T10:46:16.508Z,78.60
2022-08-03T10:48:43.273Z,77.70
2022-08-03T10:51:10.079Z,79.90
2022-08-03T10:53:37.164Z,78.30
2022-08-03T10:56:45.886Z,79.00
2022-08-03T10:59:10.587Z,77.90
2022-08-03T11:02:00.078Z,79.90
2022-08-03T11:04:24.611Z,79.20
2022-08-03T11:06:51.332Z,78.90
2022-08-03T11:09:18.141Z,77.50
2022-08-03T11:11:44.997Z,78.60
2022-08-03T11:14:11.855Z,78.00
2022-08-03T11:16:38.881Z,75.30
2022-08-03T11:19:05.788Z,75.40
2022-08-03T11:21:32.516Z,77.20
2022-08-03T11:24:03.214Z,77.80
2022-08-03T11:26:33.139Z,76.10
2022-08-03T11:29:00.003Z,75.30
2022-08-03T11:31:48.822Z,73.50
2022-08-03T11:34:13.681Z,73.70
2022-08-03T11:36:40.425Z,73.50
2022-08-03T11:39:07.241Z,74.80
2022-08-03T11:41:42.714Z,72.90
2022-08-03T11:44:11.885Z,74.30
2022-08-03T11:46:38.748Z,74.70
2022-08-03T11:49:09.951Z,74.90
2022-08-03T11:51:39.011Z,78.10
2022-08-03T11:54:05.803Z,75.10
2022-08-03T11:56:33.657Z,74.20
2022-08-03T11:59:20.395Z,76.90
2022-08-03T12:01:48.309Z,73.40
2022-08-03T12:04:16.672Z,74.60
2022-08-03T12:06:55.839Z,74.50
2022-08-03T12:09:22.734Z,75.00
2022-08-03T12:11:50.970Z,73.80
2022-08-03T12:14:50.786Z,74.40
2022-08-03T12:17:14.866Z,74.20
2022-08-03T12:19:41.835Z,73.60
2022-08-03T12:22:08.625Z,72.70
2022-08-03T12:24:35.434Z,73.40
2022-08-03T12:27:02.388Z,74.60
2022-08-03T12:29:29.245Z,72.40
2022-08-03T12:31:56.519Z,73.40
2022-08-03T12:34:23.563Z,72.40
2022-08-03T12:36:50.494Z,70.50
2022-08-03T12:39:17.368Z,70.60
2022-08-03T12:41:44.314Z,73.40
2022-08-03T12:44:12.901Z,71.60
2022-08-03T12:46:42.828Z,71.80
2022-08-03T12:49:12.856Z,70.30
2022-08-03T12:51:39.717Z,72.00
2022-08-03T12:54:07.379Z,71.00
2022-08-03T12:56:34.382Z,70.90
2022-08-03T12:59:01.408Z,69.30
2022-08-03T13:01:29.913Z,69.70
2022-08-03T13:03:59.110Z,70.80
2022-08-03T13:06:28.128Z,71.20
2022-08-03T13:08:54.913Z,71.80
2022-08-03T13:11:21.890Z,70.20
2022-08-03T13:13:48.829Z,73.50
2022-08-03T13:16:19.128Z,69.70
2022-08-03T13:18:49.403Z,69.20
2022-08-03T13:21:16.205Z,70.80
2022-08-03T13:23:43.100Z,68.50
2022-08-03T13:26:10.031Z,68.50
2022-08-03T13:28:36.848Z,69.30
2022-08-03T13:31:03.626Z,67.20
2022-08-03T13:33:30.420Z,70.30
2022-08-03T13:35:57.316Z,66.80
2022-08-03T13:38:27.228Z,66.60
2022-08-03T13:40:55.347Z,67.30
2022-08-03T13:43:22.868Z,68.10
2022-08-03T13:45:52.511Z,69.10
2022-08-03T13:48:35.946Z,67.70
2022-08-03T13:51:21.899Z,66.40
2022-08-03T13:53:49.770Z,65.80
2022-08-03T13:56:16.592Z,66.50
2022-08-03T13:58:43.795Z,67.90
2022-08-03T14:01:11.628Z,66.90
2022-08-03T14:03:38.431Z,66.10
2022-08-03T14:06:05.197Z,66.70
2022-08-03T14:08:32.151Z,67.00
2022-08-03T14:10:59.015Z,68.50
2022-08-03T14:13:25.829Z,66.50
2022-08-03T14:15:52.818Z,66.30
2022-08-03T14:18:28.713Z,65.50
2022-08-03T14:21:05.017Z,65.70
2022-08-03T14:23:33.229Z,65.00
2022-08-03T14:26:00.762Z,65.10
2022-08-03T14:28:27.537Z,63.90
2022-08-03T14:30:54.310Z,66.20
2022-08-03T14:33:21.653Z,63.40
2022-08-03T14:35:48.566Z,64.10
2022-08-03T14:38:15.565Z,64.10
2022-08-03T14:40:42.495Z,63.90
2022-08-03T14:43:09.256Z,63.90
2022-08-03T14:45:36.061Z,64.70
2022-08-03T14:50:33.073Z,64.10
2022-08-03T14:50:51.820Z,63.60
2022-08-03T14:53:19.112Z,62.40
2022-08-03T14:55:51.561Z,63.10
2022-08-03T14:58:20.527Z,63.50
2022-08-03T15:00:48.195Z,63.30
2022-08-03T15:03:16.693Z,62.80
2022-08-03T15:05:44.201Z,62.90
2022-08-03T15:08:11.140Z,62.70
2022-08-03T15:10:40.577Z,63.10
2022-08-03T15:13:11.709Z,60.90
2022-08-03T15:15:38.882Z,61.20
2022-08-03T15:18:05.656Z,62.20
2022-08-03T15:20:43.867Z,62.20
2022-08-03T15:23:11.835Z,62.00
2022-08-03T15:26:03.923Z,63.60
2022-08-03T15:28:25.572Z,63.10
2022-08-03T15:30:52.443Z,63.20
2022-08-03T15:33:19.243Z,63.50
2022-08-03T15:35:47.489Z,64.20
2022-08-03T15:38:14.325Z,64.10
2022-08-03T15:40:41.124Z,62.70
2022-08-03T15:43:11.477Z,62.40
2022-08-03T15:45:38.736Z,63.30
2022-08-03T15:48:06.627Z,64.50
2022-08-03T15:50:33.478Z,64.30
2022-08-03T15:53:00.352Z,64.80
2022-08-03T15:55:27.337Z,64.40
2022-08-03T15:59:04.358Z,66.20
2022-08-03T16:00:41.165Z,66.10
2022-08-03T16:03:07.930Z,64.60
2022-08-03T16:05:34.749Z,64.80
2022-08-03T16:08:03.431Z,64.70
2022-08-03T16:10:30.943Z,64.40
2022-08-03T16:12:59.038Z,62.20
2022-08-03T16:15:25.920Z,64.10
2022-08-03T16:17:52.953Z,63.90
2022-08-03T16:20:29.048Z,64.90
2022-08-03T16:23:00.752Z,66.20
2022-08-03T16:25:32.272Z,66.80
2022-08-03T16:28:07.595Z,65.90
2022-08-03T16:30:39.603Z,65.20
2022-08-03T16:33:06.340Z,63.90
2022-08-03T16:35:33.181Z,62.50
2022-08-03T16:38:00.239Z,63.10
2022-08-03T16:40:27.176Z,63.50
2022-08-03T16:42:53.965Z,63.10
2022-08-03T16:45:20.908Z,61.70
2022-08-03T16:47:47.961Z,60.50
2022-08-03T16:50:28.734Z,62.20
2022-08-03T16:52:56.120Z,61.70
2022-08-03T16:55:48.937Z,61.30
2022-08-03T16:58:12.459Z,60.80
2022-08-03T17:00:41.493Z,61.30
2022-08-03T17:03:18.743Z,59.40
2022-08-03T17:05:48.223Z,60.50
2022-08-03T17:08:26.316Z,59.30
2022-08-03T17:10:54.824Z,58.70
2022-08-03T17:13:22.830Z,57.90
2022-08-03T17:16:00.999Z,58.40
2022-08-03T17:18:29.883Z,59.50
2022-08-03T17:20:57.490Z,60.30
2022-08-03T17:23:34.927Z,58.70
2022-08-03T17:26:04.243Z,59.50
2022-08-03T17:28:49.398Z,59.30
2022-08-03T17:31:23.325Z,58.70
2022-08-03T17:33:58.426Z,59.10
2022-08-03T17:36:41.821Z,59.90
2022-08-03T17:39:14.314Z,61.20
2022-08-03T17:41:49.008Z,61.20
2022-08-03T17:44:33.028Z,61.20
2022-08-03T17:52:27.353Z,64.10
2022-08-03T17:55:56.879Z,65.20
2022-08-03T17:58:02.509Z,65.20
2022-08-03T18:00:46.520Z,66.60
2022-08-03T18:03:18.635Z,66.70
2022-08-03T18:06:10.357Z,68.00
2022-08-03T18:08:36.420Z,68.60
2022-08-03T18:11:14.292Z,69.90
2022-08-03T18:13:41.869Z,69.80
2022-08-03T18:16:20.197Z,71.20
2022-08-03T18:18:48.713Z,72.10
2022-08-03T18:21:17.544Z,72.40
2022-08-03T18:23:44.476Z,73.20
2022-08-03T18:26:12.239Z,73.80
2022-08-03T18:28:39.339Z,74.60
2022-08-03T18:31:07.580Z,74.80
2022-08-03T18:34:17.133Z,75.30
2022-08-03T18:36:30.506Z,75.30
2022-08-03T18:38:58.406Z,76.10
2022-08-03T18:41:33.379Z,76.40
2022-08-03T18:44:07.941Z,76.70
2022-08-03T18:46:36.841Z,76.20
2022-08-03T18:49:08.213Z,75.90
2022-08-03T18:51:43.042Z,76.00
2022-08-03T18:54:45.955Z,75.90
2022-08-03T18:57:00.412Z,76.50
2022-08-03T18:59:30.481Z,76.30
2022-08-03T19:02:01.287Z,76.90
2022-08-03T19:04:30.996Z,78.70
2022-08-03T19:06:57.856Z,77.70
2022-08-03T19:09:24.647Z,77.20
2022-08-03T19:12:13.215Z,77.40
2022-08-03T19:14:42.518Z,77.60
2022-08-03T19:17:09.330Z,77.50
2022-08-03T19:19:43.959Z,77.40
2022-08-03T19:22:11.640Z,77.80
2022-08-03T19:24:38.384Z,78.20
2022-08-03T19:27:05.117Z,78.00
2022-08-03T19:29:58.607Z,78.70
2022-08-03T19:32:24.520Z,78.70
2022-08-03T19:34:51.385Z,78.50
2022-08-03T19:37:19.052Z,78.70
2022-08-03T19:39:56.581Z,78.70
2022-08-03T19:42:24.104Z,78.60
2022-08-03T19:44:55.944Z,78.60
2022-08-03T19:47:22.767Z,79.60
2022-08-03T19:49:49.715Z,80.10
2022-08-03T19:52:32.347Z,81.30
2022-08-03T19:55:00.526Z,81.30
2022-08-03T19:57:27.419Z,81.80
2022-08-03T19:59:54.292Z,81.00
2022-08-03T20:05:11.945Z,81.60
2022-08-03T20:07:41.960Z,80.80
2022-08-03T20:10:15.461Z,80.90
2022-08-03T20:12:43.552Z,81.60
2022-08-03T20:15:10.801Z,82.20
2022-08-03T20:17:55.628Z,82.00
2022-08-03T20:20:24.091Z,81.10
2022-08-03T20:22:53.002Z,81.50
2022-08-03T20:25:24.410Z,81.50
2022-08-03T20:28:07.893Z,81.70
2022-08-03T20:30:42.560Z,81.90
2022-08-03T20:33:10.111Z,82.30
2022-08-03T20:35:36.867Z,82.50
2022-08-03T20:38:03.821Z,82.70
2022-08-03T20:40:30.565Z,83.00
2022-08-03T20:42:57.332Z,83.10
2022-08-03T20:45:59.187Z,83.20
2022-08-03T20:48:10.996Z,83.50
2022-08-03T20:50:37.882Z,84.10
2022-08-03T20:53:04.857Z,84.30
2022-08-03T20:55:48.209Z,84.10
2022-08-03T20:58:20.079Z,84.30
2022-08-03T21:00:51.472Z,84.30
2022-08-03T21:03:18.900Z,84.70
2022-08-03T21:05:48.029Z,84.60
2022-08-03T21:08:19.052Z,84.50
2022-08-03T21:10:45.853Z,84.80
2022-08-03T21:13:03.417Z,80.70
2022-08-03T21:13:04.598Z,62.20
2022-08-03T21:13:17.701Z,84.90
2022-08-03T21:16:06.756Z,85.20
2022-08-03T21:18:32.073Z,85.70
2022-08-03T21:20:58.840Z,86.30
2022-08-03T21:23:40.231Z,86.80
2022-08-03T21:26:12.757Z,86.60
2022-08-03T21:28:39.800Z,86.40
2022-08-03T21:31:06.692Z,86.40
2022-08-03T21:33:33.585Z,86.70
2022-08-03T21:36:01.922Z,87.20
2022-08-03T21:38:30.487Z,87.30
2022-08-03T21:40:57.436Z,86.90
2022-08-03T21:43:24.168Z,87.00
2022-08-03T21:45:50.973Z,87.90
2022-08-03T21:48:17.890Z,87.70
2022-08-03T21:50:44.701Z,87.50
2022-08-03T21:53:11.431Z,87.80
2022-08-03T21:55:38.194Z,87.60
2022-08-03T21:58:05.148Z,88.90
2022-08-03T22:00:31.944Z,89.00
2022-08-03T22:02:59.279Z,89.10
2022-08-03T22:05:43.477Z,89.60
2022-08-03T22:08:10.900Z,89.40
2022-08-03T22:10:37.651Z,89.40
2022-08-03T22:13:04.428Z,89.30
2022-08-03T22:15:31.270Z,89.50
2022-08-03T22:17:58.088Z,90.00
2022-08-03T22:20:24.878Z,90.00
2022-08-03T22:22:55.520Z,90.10
2022-08-03T22:25:23.217Z,89.40
2022-08-03T22:27:49.967Z,89.70
2022-08-03T22:30:16.867Z,90.10
2022-08-03T22:32:43.667Z,90.20
2022-08-03T22:35:10.438Z,90.10
2022-08-03T22:37:37.431Z,90.10
2022-08-03T22:40:04.209Z,90.00
2022-08-03T22:42:30.938Z,89.80
2022-08-03T22:44:57.899Z,89.80
2022-08-03T22:47:24.901Z,90.10
2022-08-03T22:50:31.210Z,90.20
2022-08-03T22:52:40.646Z,90.40
2022-08-03T22:55:07.419Z,90.40
2022-08-03T22:57:34.165Z,90.60
2022-08-03T23:00:01.157Z,90.30
2022-08-03T23:02:27.899Z,90.30
2022-08-03T23:04:54.624Z,90.60
2022-08-03T23:07:22.857Z,91.00
2022-08-03T23:09:49.801Z,91.20
2022-08-03T23:12:16.615Z,91.30
2022-08-03T23:14:43.519Z,91.20
2022-08-03T23:17:10.306Z,91.40
2022-08-03T23:19:44.681Z,91.40
2022-08-03T23:22:29.406Z,91.30
2022-08-03T23:24:56.668Z,91.20
2022-08-03T23:27:23.636Z,91.40
2022-08-03T23:29:50.366Z,91.60
2022-08-03T23:32:17.098Z,91.60
2022-08-03T23:35:02.636Z,91.70
2022-08-03T23:37:29.744Z,91.80
2022-08-03T23:39:56.474Z,92.10
2022-08-03T23:42:23.341Z,91.80
2022-08-03T23:44:50.072Z,91.90
2022-08-03T23:47:16.844Z,91.70
2022-08-03T23:52:18.193Z,91.90
2022-08-03T23:54:46.860Z,92.00
2022-08-03T23:57:13.742Z,92.00
2022-08-03T23:59:40.840Z,92.10
